Time;durP1;ratioP1;P1;durP2;ratioP2;P2;SDS_P1;SDS_P2;PMS_P1;PMS_P2;Temp;Humidity;BMP_temperature;BMP_pressure;BME280_temperature;BME280_humidity;BME280_pressure;Samples;Min_cycle;Max_cycle;Signal;HPM_P1;HPM_P2
2021/07/07 00:01:34;;;;;;;0.70;0.30;;;17.60;90.40;;;;;;4951037;29;20536;-77
2021/07/07 00:04:00;;;;;;;0.82;0.50;;;17.60;90.50;;;;;;4939321;29;20123;-77
2021/07/07 00:06:25;;;;;;;4.00;0.50;;;17.60;90.70;;;;;;4927743;29;20465;-76
2021/07/07 00:08:51;;;;;;;4.90;0.73;;;17.50;90.80;;;;;;4945106;29;20042;-76
2021/07/07 00:11:17;;;;;;;1.10;0.50;;;17.40;90.90;;;;;;4951263;29;20034;-77
2021/07/07 00:13:43;;;;;;;0.90;0.60;;;17.40;91.00;;;;;;4940199;29;20392;-77
2021/07/07 00:16:09;;;;;;;3.53;0.50;;;17.40;91.20;;;;;;4933376;29;20023;-76
2021/07/07 00:18:35;;;;;;;3.15;0.50;;;17.30;91.50;;;;;;4945558;29;20027;-76
2021/07/07 00:21:01;;;;;;;3.13;0.40;;;17.30;91.40;;;;;;4933747;29;20027;-77
2021/07/07 00:23:29;;;;;;;1.50;0.40;;;17.30;91.50;;;;;;4956177;29;20461;-76
2021/07/07 00:25:55;;;;;;;0.68;0.40;;;17.40;91.30;;;;;;4932259;29;20042;-76
2021/07/07 00:28:22;;;;;;;4.03;0.40;;;17.40;91.10;;;;;;4931713;29;20113;-74
2021/07/07 00:30:50;;;;;;;4.68;0.30;;;17.40;91.00;;;;;;4931867;29;20035;-75
2021/07/07 00:33:17;;;;;;;2.33;0.50;;;17.40;91.10;;;;;;4954821;29;20050;-75
2021/07/07 00:35:43;;;;;;;5.38;0.55;;;17.30;91.10;;;;;;4937500;29;20061;-75
2021/07/07 00:38:12;;;;;;;0.57;0.40;;;17.40;90.90;;;;;;4946860;29;20042;-75
2021/07/07 00:40:38;;;;;;;1.20;0.40;;;17.50;90.80;;;;;;4953443;29;20102;-76
2021/07/07 00:43:04;;;;;;;3.90;0.32;;;17.50;90.70;;;;;;4935268;29;20065;-75
2021/07/07 00:45:29;;;;;;;3.40;0.30;;;17.50;90.70;;;;;;4941799;29;20039;-76
2021/07/07 00:47:55;;;;;;;0.50;0.30;;;17.50;90.70;;;;;;4951999;28;20110;-76
2021/07/07 00:50:20;;;;;;;1.40;0.40;;;17.40;90.80;;;;;;4937901;29;20031;-75
2021/07/07 00:52:46;;;;;;;0.88;0.30;;;17.40;90.80;;;;;;4945196;29;20031;-75
2021/07/07 00:55:15;;;;;;;3.03;0.40;;;17.40;90.90;;;;;;4932132;29;20404;-75
2021/07/07 00:57:44;;;;;;;2.40;0.30;;;17.40;90.90;;;;;;4922260;29;20087;-75
2021/07/07 01:00:15;;;;;;;1.92;0.40;;;17.40;91.00;;;;;;4949531;29;20044;-75
2021/07/07 01:02:43;;;;;;;3.03;0.40;;;17.50;91.30;;;;;;4928539;29;20460;-75
2021/07/07 01:05:11;;;;;;;2.45;0.50;;;17.40;91.00;;;;;;4937102;29;20031;-74
2021/07/07 01:07:37;;;;;;;3.38;0.40;;;17.50;91.10;;;;;;4944823;28;20027;-76
2021/07/07 01:10:06;;;;;;;0.88;0.50;;;17.50;91.20;;;;;;4922774;29;20491;-77
2021/07/07 01:12:32;;;;;;;0.47;0.35;;;17.50;91.40;;;;;;4937834;29;20083;-76
2021/07/07 01:15:02;;;;;;;0.80;0.40;;;17.40;91.30;;;;;;4942713;29;20071;-77
2021/07/07 01:17:32;;;;;;;1.52;0.38;;;17.40;91.30;;;;;;4951635;29;20101;-75
2021/07/07 01:20:08;;;;;;;2.35;0.50;;;17.40;91.40;;;;;;4938915;29;20035;-76
2021/07/07 01:22:33;;;;;;;2.85;0.60;;;17.40;91.40;;;;;;4929129;29;20039;-75
2021/07/07 01:24:59;;;;;;;0.75;0.30;;;17.30;91.40;;;;;;4947308;29;20461;-75
2021/07/07 01:27:28;;;;;;;2.30;0.63;;;17.30;91.40;;;;;;4939144;29;20059;-75
2021/07/07 01:29:54;;;;;;;1.40;0.40;;;17.40;91.20;;;;;;4933659;29;20042;-75
2021/07/07 01:32:19;;;;;;;1.58;0.50;;;17.40;91.10;;;;;;4924656;29;20395;-75
2021/07/07 01:34:45;;;;;;;1.05;0.35;;;17.30;91.20;;;;;;4944657;29;20038;-75
2021/07/07 01:37:11;;;;;;;0.77;0.40;;;17.30;91.20;;;;;;4948148;29;20071;-75
2021/07/07 01:39:37;;;;;;;4.10;0.52;;;17.20;91.40;;;;;;4936461;29;20473;-75
2021/07/07 01:42:03;;;;;;;1.63;0.75;;;17.30;91.30;;;;;;4922515;29;20468;-77
2021/07/07 01:44:28;;;;;;;1.77;0.30;;;17.30;91.20;;;;;;4946742;29;20032;-76
2021/07/07 01:46:54;;;;;;;0.80;0.43;;;17.30;91.20;;;;;;4936231;29;20516;-76
2021/07/07 01:49:20;;;;;;;3.75;0.52;;;17.30;91.20;;;;;;4949656;29;20036;-76
2021/07/07 01:51:46;;;;;;;3.13;0.60;;;17.30;91.20;;;;;;4936885;29;20027;-76
2021/07/07 01:54:11;;;;;;;1.20;0.43;;;17.30;91.10;;;;;;4953000;29;20035;-76
2021/07/07 01:56:37;;;;;;;4.32;0.40;;;17.40;90.90;;;;;;4927866;29;20086;-76
2021/07/07 01:59:02;;;;;;;3.50;0.50;;;17.30;90.90;;;;;;4946173;29;20055;-77
2021/07/07 02:01:28;;;;;;;2.85;0.50;;;17.30;91.00;;;;;;4921670;29;20082;-76
2021/07/07 02:03:54;;;;;;;1.70;0.30;;;17.30;91.00;;;;;;4953951;29;20039;-76
2021/07/07 02:06:20;;;;;;;0.80;0.40;;;17.30;91.00;;;;;;4930064;29;20528;-76
2021/07/07 02:08:45;;;;;;;4.40;0.47;;;17.20;91.10;;;;;;4945100;29;20035;-76
2021/07/07 02:11:11;;;;;;;1.08;0.60;;;17.10;91.30;;;;;;4940406;29;20036;-76
2021/07/07 02:13:37;;;;;;;3.08;0.45;;;17.10;91.40;;;;;;4933564;29;20027;-76
2021/07/07 02:16:04;;;;;;;0.55;0.30;;;17.10;91.30;;;;;;4939345;29;20082;-76
2021/07/07 02:18:30;;;;;;;3.85;0.45;;;17.10;91.30;;;;;;4950638;29;20037;-76
2021/07/07 02:20:55;;;;;;;4.13;0.47;;;17.10;91.20;;;;;;4937235;29;20504;-75
2021/07/07 02:23:21;;;;;;;2.67;0.60;;;17.20;91.30;;;;;;4938549;29;20091;-75
2021/07/07 02:25:47;;;;;;;1.88;0.50;;;17.10;91.30;;;;;;4950700;29;20027;-75
2021/07/07 02:28:16;;;;;;;3.00;0.63;;;17.00;91.50;;;;;;4924828;29;20023;-75
2021/07/07 02:30:42;;;;;;;4.57;0.50;;;17.10;91.50;;;;;;4928059;29;20040;-75
2021/07/07 02:33:09;;;;;;;0.50;0.50;;;17.00;91.60;;;;;;4947575;29;20125;-76
2021/07/07 02:35:37;;;;;;;1.92;0.40;;;17.00;91.80;;;;;;4951815;29;20036;-77
2021/07/07 02:38:06;;;;;;;2.05;0.50;;;17.00;91.70;;;;;;4932042;29;20401;-76
2021/07/07 02:40:34;;;;;;;1.00;0.40;;;17.00;91.70;;;;;;4943367;29;20032;-76
2021/07/07 02:43:00;;;;;;;3.42;0.57;;;17.00;91.60;;;;;;4924578;29;20042;-77
2021/07/07 02:45:27;;;;;;;1.33;0.40;;;17.00;91.70;;;;;;4950350;29;20032;-76
2021/07/07 02:47:53;;;;;;;0.90;0.60;;;17.00;91.90;;;;;;4938046;29;20086;-76
2021/07/07 02:50:20;;;;;;;0.65;0.30;;;17.00;91.90;;;;;;4947094;29;20180;-76
2021/07/07 02:52:48;;;;;;;1.80;0.38;;;17.00;91.90;;;;;;4944926;29;20066;-76
2021/07/07 02:55:16;;;;;;;2.85;0.40;;;17.00;91.80;;;;;;4939533;29;20083;-76
2021/07/07 02:57:58;;;;;;;1.92;0.30;;;17.00;91.80;;;;;;4950528;29;20038;-77
2021/07/07 03:00:32;;;;;;;0.35;0.25;;;16.90;91.90;;;;;;4941790;29;20086;-76
2021/07/07 03:03:05;;;;;;;2.40;0.52;;;17.00;92.00;;;;;;4925136;29;20036;-76
2021/07/07 03:05:31;;;;;;;2.90;0.50;;;17.00;91.90;;;;;;4918011;29;20511;-76
2021/07/07 03:07:57;;;;;;;2.50;0.52;;;17.00;91.80;;;;;;4953636;29;20078;-77
2021/07/07 03:10:23;;;;;;;0.77;0.40;;;17.00;91.80;;;;;;4929760;29;20403;-77
2021/07/07 03:12:49;;;;;;;3.40;0.57;;;17.00;91.80;;;;;;4948912;29;20031;-77
2021/07/07 03:15:14;;;;;;;1.75;0.50;;;16.90;91.80;;;;;;4925815;29;20059;-75
2021/07/07 03:17:40;;;;;;;3.33;0.60;;;16.90;91.90;;;;;;4954144;29;20135;-77
2021/07/07 03:20:07;;;;;;;2.60;0.40;;;16.90;91.90;;;;;;4925518;29;20024;-76
2021/07/07 03:22:33;;;;;;;1.65;0.73;;;16.90;91.80;;;;;;4948590;29;20035;-76
2021/07/07 03:24:58;;;;;;;2.58;0.45;;;17.00;91.70;;;;;;4949447;29;20535;-76
2021/07/07 03:27:24;;;;;;;1.00;0.50;;;16.90;91.70;;;;;;4941458;29;20035;-76
2021/07/07 03:29:50;;;;;;;0.82;0.70;;;16.90;91.80;;;;;;4936154;29;20032;-76
2021/07/07 03:32:15;;;;;;;1.38;0.65;;;16.80;91.90;;;;;;4943170;29;20038;-76
2021/07/07 03:34:41;;;;;;;2.58;0.50;;;16.80;92.00;;;;;;4939309;29;20069;-74
2021/07/07 03:37:07;;;;;;;1.13;0.63;;;16.90;92.00;;;;;;4926157;29;20033;-75
2021/07/07 03:39:32;;;;;;;2.55;0.55;;;16.90;91.90;;;;;;4953308;29;20027;-74
2021/07/07 03:41:58;;;;;;;1.00;0.40;;;16.90;91.90;;;;;;4953086;29;20032;-74
2021/07/07 03:44:23;;;;;;;1.75;0.50;;;16.80;92.10;;;;;;4938819;29;20058;-75
2021/07/07 03:46:49;;;;;;;4.53;0.68;;;16.80;92.20;;;;;;4956794;29;20031;-74
2021/07/07 03:49:15;;;;;;;2.50;0.52;;;16.80;92.30;;;;;;4956320;29;20469;-74
2021/07/07 03:51:40;;;;;;;2.50;0.60;;;16.90;92.10;;;;;;4956320;29;20491;-75
2021/07/07 03:54:06;;;;;;;1.92;0.50;;;16.90;92.00;;;;;;4955603;29;20035;-75
2021/07/07 03:56:31;;;;;;;0.95;0.55;;;16.90;91.90;;;;;;4956220;29;20024;-74
2021/07/07 03:58:57;;;;;;;2.05;0.45;;;17.00;91.90;;;;;;4938925;29;20051;-74
2021/07/07 04:01:23;;;;;;;2.65;0.68;;;16.90;91.90;;;;;;4955922;29;20098;-75
2021/07/07 04:03:48;;;;;;;2.53;0.57;;;16.90;92.00;;;;;;4938798;29;20027;-74
2021/07/07 04:06:14;;;;;;;4.30;0.70;;;16.90;92.00;;;;;;4938761;29;20034;-74
2021/07/07 04:08:40;;;;;;;0.60;0.40;;;16.90;92.00;;;;;;4939185;29;20023;-74
2021/07/07 04:11:06;;;;;;;1.33;0.52;;;16.90;92.00;;;;;;4955767;29;20516;-75
2021/07/07 04:13:31;;;;;;;2.83;0.70;;;16.90;92.00;;;;;;4938930;29;20027;-75
2021/07/07 04:15:58;;;;;;;2.55;0.60;;;16.90;92.00;;;;;;4938751;29;20499;-75
2021/07/07 04:18:24;;;;;;;0.98;0.45;;;16.90;92.10;;;;;;4955371;29;20024;-75
2021/07/07 04:20:50;;;;;;;1.50;0.73;;;16.90;92.00;;;;;;4938808;29;20030;-74
2021/07/07 04:23:15;;;;;;;2.45;0.88;;;16.90;92.00;;;;;;4954828;28;20033;-74
2021/07/07 04:25:42;;;;;;;4.60;0.95;;;16.90;91.90;;;;;;4938611;29;20035;-74
2021/07/07 04:28:08;;;;;;;3.17;0.70;;;16.90;91.90;;;;;;4938257;29;20043;-75
2021/07/07 04:30:34;;;;;;;2.65;0.80;;;17.00;91.80;;;;;;4956090;29;20033;-75
2021/07/07 04:33:00;;;;;;;1.23;0.73;;;16.90;91.80;;;;;;4938766;29;20027;-75
2021/07/07 04:35:27;;;;;;;2.20;0.80;;;16.90;91.90;;;;;;4937786;29;20139;-75
2021/07/07 04:37:53;;;;;;;4.70;0.90;;;16.90;91.90;;;;;;4938421;29;20122;-74
2021/07/07 04:40:21;;;;;;;1.48;0.82;;;16.80;92.00;;;;;;4937733;29;20469;-75
2021/07/07 04:42:47;;;;;;;2.22;0.60;;;16.80;92.10;;;;;;4938372;29;20118;-74
2021/07/07 04:45:13;;;;;;;3.55;0.90;;;16.90;92.00;;;;;;4937845;29;20126;-74
2021/07/07 04:47:39;;;;;;;1.90;0.60;;;16.90;91.90;;;;;;4938327;29;20028;-74
2021/07/07 04:50:07;;;;;;;2.30;0.80;;;16.90;91.90;;;;;;4937734;29;20031;-75
2021/07/07 04:52:33;;;;;;;2.30;0.82;;;17.00;91.80;;;;;;4936038;29;20483;-75
2021/07/07 04:54:58;;;;;;;1.98;0.60;;;17.00;91.70;;;;;;4938307;29;20036;-75
2021/07/07 04:57:24;;;;;;;2.20;0.70;;;17.00;91.90;;;;;;4937779;29;20037;-76
2021/07/07 04:59:50;;;;;;;3.05;0.98;;;17.00;91.90;;;;;;4923150;29;20043;-75
2021/07/07 05:02:15;;;;;;;4.03;0.70;;;17.00;91.90;;;;;;4935279;29;20035;-75
2021/07/07 05:04:41;;;;;;;2.55;0.70;;;17.00;92.00;;;;;;4930321;29;20046;-75
2021/07/07 05:07:06;;;;;;;1.13;0.70;;;17.00;91.90;;;;;;4928303;29;20393;-76
2021/07/07 05:09:32;;;;;;;5.38;1.05;;;17.00;91.80;;;;;;4900376;29;20381;-76
2021/07/07 05:11:58;;;;;;;5.10;0.80;;;16.90;91.90;;;;;;4899921;29;20034;-75
2021/07/07 05:14:23;;;;;;;4.10;1.25;;;16.90;92.10;;;;;;4899554;29;20115;-75
2021/07/07 05:16:49;;;;;;;1.63;0.98;;;16.90;92.10;;;;;;4917010;29;20028;-75
2021/07/07 05:19:15;;;;;;;3.65;0.80;;;17.00;92.20;;;;;;4899562;29;20099;-75
2021/07/07 05:21:42;;;;;;;1.67;0.98;;;16.90;92.50;;;;;;4929231;29;20067;-75
2021/07/07 05:24:07;;;;;;;3.92;2.80;;;16.90;92.10;;;;;;4935238;29;20492;-76
2021/07/07 05:26:34;;;;;;;7.47;1.00;;;17.00;92.00;;;;;;4918372;29;20031;-75
2021/07/07 05:28:59;;;;;;;6.28;1.10;;;17.00;92.10;;;;;;4917890;29;20035;-75
2021/07/07 05:31:26;;;;;;;2.50;1.00;;;17.00;92.10;;;;;;4917593;29;20148;-75
2021/07/07 05:33:53;;;;;;;4.93;1.45;;;17.00;92.10;;;;;;4934591;29;20046;-75
2021/07/07 05:36:19;;;;;;;1.73;1.23;;;17.10;92.10;;;;;;4917788;29;20032;-76
2021/07/07 05:38:45;;;;;;;2.97;0.90;;;17.10;92.10;;;;;;4918343;29;20031;-75
2021/07/07 05:41:10;;;;;;;3.72;0.73;;;17.00;92.20;;;;;;4935108;29;20373;-76
2021/07/07 05:43:36;;;;;;;3.03;0.95;;;17.10;92.30;;;;;;4918141;29;20053;-76
2021/07/07 05:46:02;;;;;;;2.50;0.90;;;17.20;92.20;;;;;;4935779;29;20035;-75
2021/07/07 05:48:28;;;;;;;2.80;0.80;;;17.20;92.00;;;;;;4935138;29;20363;-75
2021/07/07 05:50:54;;;;;;;2.63;0.95;;;17.10;92.20;;;;;;4935731;29;20031;-75
2021/07/07 05:53:20;;;;;;;2.88;1.00;;;17.10;92.50;;;;;;4918207;29;20035;-75
2021/07/07 05:55:46;;;;;;;5.00;1.10;;;17.20;92.60;;;;;;4935341;29;20039;-75
2021/07/07 05:58:11;;;;;;;2.50;0.90;;;17.20;92.40;;;;;;4919527;29;20500;-75
2021/07/07 06:00:37;;;;;;;4.45;0.90;;;17.20;92.50;;;;;;4954946;29;20035;-75
2021/07/07 06:03:03;;;;;;;3.70;0.93;;;17.30;92.30;;;;;;4954640;29;20048;-80
2021/07/07 06:05:30;;;;;;;2.92;1.10;;;17.30;92.10;;;;;;4937312;29;20035;-76
2021/07/07 06:07:55;;;;;;;4.82;1.98;;;17.40;91.90;;;;;;4937181;29;20027;-75
2021/07/07 06:10:24;;;;;;;7.32;1.00;;;17.50;92.00;;;;;;4954025;29;20384;-78
2021/07/07 06:12:51;;;;;;;4.43;1.55;;;17.60;91.30;;;;;;4954541;29;20031;-76
2021/07/07 06:15:16;;;;;;;5.63;1.33;;;17.60;91.00;;;;;;4937013;29;20396;-76
2021/07/07 06:17:43;;;;;;;4.72;1.80;;;17.60;90.90;;;;;;4937320;29;20114;-76
2021/07/07 06:20:11;;;;;;;6.38;2.47;;;17.60;90.90;;;;;;4954126;29;20024;-76
2021/07/07 06:22:38;;;;;;;3.15;1.17;;;17.60;90.90;;;;;;4954809;29;20024;-75
2021/07/07 06:25:07;;;;;;;3.58;1.10;;;17.70;91.00;;;;;;4954272;29;20114;-77
2021/07/07 06:27:34;;;;;;;3.17;1.05;;;17.70;91.10;;;;;;4937434;29;20023;-77
2021/07/07 06:30:00;;;;;;;5.22;1.35;;;17.70;91.10;;;;;;4955052;29;20050;-77
2021/07/07 06:32:26;;;;;;;2.55;1.05;;;17.80;91.00;;;;;;4937017;29;20469;-78
2021/07/07 06:34:51;;;;;;;5.10;1.25;;;17.70;91.00;;;;;;4954126;29;20046;-81
2021/07/07 06:37:17;;;;;;;4.82;1.20;;;17.90;90.90;;;;;;4937219;29;20035;-76
2021/07/07 06:39:43;;;;;;;2.88;1.10;;;17.80;91.00;;;;;;4954794;29;20041;-78
2021/07/07 06:42:09;;;;;;;3.85;0.90;;;17.80;91.00;;;;;;4938009;29;20027;-77
2021/07/07 06:44:35;;;;;;;6.35;1.10;;;17.80;91.10;;;;;;4954525;29;20032;-76
2021/07/07 06:47:01;;;;;;;2.40;1.00;;;17.70;91.10;;;;;;4940521;29;20030;-76
2021/07/07 06:49:26;;;;;;;3.05;0.95;;;17.70;91.30;;;;;;4957534;29;20031;-76
2021/07/07 06:51:52;;;;;;;1.92;0.90;;;17.70;91.10;;;;;;4940526;29;20484;-76
2021/07/07 06:54:18;;;;;;;3.50;1.20;;;17.60;91.20;;;;;;4940245;29;20086;-74
2021/07/07 06:56:43;;;;;;;2.03;0.90;;;17.50;91.60;;;;;;4957809;29;20023;-74
2021/07/07 06:59:09;;;;;;;2.47;0.85;;;17.50;91.70;;;;;;4957174;29;20047;-75
2021/07/07 07:01:34;;;;;;;2.95;1.02;;;17.50;91.70;;;;;;4939620;29;20499;-75
2021/07/07 07:04:00;;;;;;;5.13;1.17;;;17.50;91.80;;;;;;4957211;29;20086;-76
2021/07/07 07:06:28;;;;;;;3.55;1.00;;;17.60;91.90;;;;;;4940267;29;20040;-76
2021/07/07 07:08:54;;;;;;;3.53;1.05;;;17.50;92.20;;;;;;4957445;28;20029;-78
2021/07/07 07:11:20;;;;;;;3.88;1.10;;;17.50;92.10;;;;;;4936987;29;20119;-76
2021/07/07 07:13:45;;;;;;;6.70;1.33;;;17.50;91.90;;;;;;4938313;29;20028;-75
2021/07/07 07:16:12;;;;;;;5.28;1.08;;;17.60;91.70;;;;;;4937084;29;20038;-79
2021/07/07 07:18:38;;;;;;;3.00;1.33;;;17.60;91.60;;;;;;4938091;29;20028;-75
2021/07/07 07:21:04;;;;;;;3.55;0.98;;;17.60;91.50;;;;;;4936900;29;20430;-75
2021/07/07 07:23:30;;;;;;;1.75;1.00;;;17.60;91.60;;;;;;4936522;29;20034;-75
2021/07/07 07:25:55;;;;;;;2.78;0.95;;;17.60;91.70;;;;;;4938145;29;20079;-75
2021/07/07 07:28:21;;;;;;;3.83;1.02;;;17.60;91.60;;;;;;4936228;29;20035;-75
2021/07/07 07:30:47;;;;;;;1.55;0.90;;;17.60;91.90;;;;;;4937892;29;20028;-76
2021/07/07 07:33:12;;;;;;;3.33;1.00;;;17.60;91.80;;;;;;4939536;29;20027;-77
2021/07/07 07:35:38;;;;;;;3.10;1.05;;;17.60;92.30;;;;;;4939898;29;20369;-75
2021/07/07 07:38:05;;;;;;;2.17;1.20;;;17.50;92.00;;;;;;4957008;29;20476;-72
2021/07/07 07:40:35;;;;;;;3.28;1.27;;;17.50;91.90;;;;;;4956378;29;20082;-76
2021/07/07 07:43:03;;;;;;;3.28;1.20;;;17.50;92.40;;;;;;4956824;29;20111;-76
2021/07/07 07:45:29;;;;;;;2.10;1.00;;;17.50;92.40;;;;;;4956345;29;20038;-75
2021/07/07 07:47:55;;;;;;;1.80;1.05;;;17.60;92.30;;;;;;4939929;29;20487;-75
2021/07/07 07:50:21;;;;;;;3.63;1.08;;;17.60;92.70;;;;;;4956259;29;20031;-76
2021/07/07 07:52:47;;;;;;;3.58;1.15;;;17.70;92.50;;;;;;4956605;29;20023;-77
2021/07/07 07:55:13;;;;;;;2.88;1.10;;;17.70;92.20;;;;;;4956766;29;20046;-75
2021/07/07 07:57:39;;;;;;;3.65;1.25;;;17.80;92.20;;;;;;4938749;29;20027;-75
2021/07/07 08:00:23;;;;;;;1.83;0.93;;;17.70;92.50;;;;;;4956056;29;20051;-75
2021/07/07 08:02:49;;;;;;;1.88;0.80;;;17.70;92.50;;;;;;4956716;29;20031;-75
2021/07/07 08:05:15;;;;;;;1.58;0.70;;;17.70;92.20;;;;;;4941880;29;20159;-76
2021/07/07 08:07:42;;;;;;;1.73;0.90;;;17.80;91.90;;;;;;4937026;29;20028;-76
2021/07/07 08:10:10;;;;;;;3.65;0.93;;;17.80;91.80;;;;;;4938601;29;20023;-77
2021/07/07 08:12:36;;;;;;;3.53;0.80;;;17.90;92.20;;;;;;4949858;29;20179;-75
2021/07/07 08:15:06;;;;;;;4.70;1.00;;;17.80;91.90;;;;;;4953659;29;20035;-76
2021/07/07 08:17:32;;;;;;;6.57;1.48;;;17.90;91.80;;;;;;4951998;29;20039;-76
2021/07/07 08:19:58;;;;;;;1.33;0.70;;;17.90;91.60;;;;;;4938205;29;20028;-75
2021/07/07 08:22:23;;;;;;;1.77;0.77;;;17.90;91.50;;;;;;4927538;29;20087;-78
2021/07/07 08:24:49;;;;;;;1.65;0.80;;;18.00;91.70;;;;;;4932930;29;20042;-76
2021/07/07 08:27:15;;;;;;;4.30;0.95;;;18.00;91.80;;;;;;4932588;29;20027;-80
2021/07/07 08:29:41;;;;;;;1.42;0.80;;;18.00;91.40;;;;;;4936323;29;20035;-76
2021/07/07 08:32:07;;;;;;;2.72;0.95;;;18.00;91.40;;;;;;4947270;29;20370;-76
2021/07/07 08:34:33;;;;;;;3.80;1.10;;;18.10;91.40;;;;;;4923707;29;20072;-75
2021/07/07 08:37:00;;;;;;;2.08;0.80;;;18.10;91.40;;;;;;4919572;29;20114;-75
2021/07/07 08:39:27;;;;;;;1.35;0.75;;;18.10;91.10;;;;;;4936255;29;20031;-75
2021/07/07 08:41:55;;;;;;;2.65;0.90;;;18.20;91.00;;;;;;4952013;29;20019;-76
2021/07/07 08:44:21;;;;;;;3.17;0.80;;;18.30;90.60;;;;;;4952544;29;20042;-74
2021/07/07 08:46:47;;;;;;;1.08;0.77;;;18.30;90.80;;;;;;4955163;29;20023;-75
2021/07/07 08:49:13;;;;;;;2.25;0.80;;;18.40;90.40;;;;;;4937868;29;20081;-74
2021/07/07 08:51:41;;;;;;;4.88;0.85;;;18.40;90.50;;;;;;4954704;29;20106;-76
2021/07/07 08:54:10;;;;;;;1.83;0.73;;;18.40;90.20;;;;;;4952038;29;20031;-76
2021/07/07 08:56:41;;;;;;;1.60;0.75;;;18.40;90.70;;;;;;4937391;29;20600;-73
2021/07/07 08:59:12;;;;;;;1.67;0.60;;;18.50;90.20;;;;;;4934851;29;20082;-75
2021/07/07 09:02:02;;;;;;;1.80;0.70;;;18.50;90.80;;;;;;4937018;29;20033;-76
2021/07/07 09:04:30;;;;;;;1.50;0.60;;;18.60;89.90;;;;;;4931410;29;20035;-74
2021/07/07 09:07:07;;;;;;;1.27;0.60;;;18.60;90.30;;;;;;4938244;28;20019;-74
2021/07/07 09:10:03;;;;;;;1.63;0.60;;;18.60;90.10;;;;;;4935794;29;20110;-75
2021/07/07 09:12:29;;;;;;;2.40;0.90;;;18.80;89.40;;;;;;4916682;29;20510;-74
2021/07/07 09:15:05;;;;;;;1.45;0.43;;;18.90;88.40;;;;;;4918519;29;20465;-74
2021/07/07 09:17:41;;;;;;;3.75;0.60;;;18.90;88.00;;;;;;4917578;29;20078;-75
2021/07/07 09:20:36;;;;;;;1.15;0.60;;;18.90;87.50;;;;;;4948441;29;20469;-74
2021/07/07 09:23:25;;;;;;;1.63;0.50;;;18.90;86.90;;;;;;4937424;29;20035;-74
2021/07/07 09:25:55;;;;;;;0.85;0.40;;;19.00;85.40;;;;;;4937687;29;20038;-74
2021/07/07 09:28:35;;;;;;;2.00;0.50;;;19.00;85.90;;;;;;4937298;29;20126;-76
2021/07/07 09:31:05;;;;;;;1.70;0.88;;;19.10;85.70;;;;;;4955207;29;20269;-73
2021/07/07 09:33:42;;;;;;;1.15;0.60;;;19.10;86.10;;;;;;4954131;28;20027;-74
2021/07/07 09:36:25;;;;;;;3.25;1.10;;;19.20;86.00;;;;;;4936074;29;20478;-74
2021/07/07 09:38:52;;;;;;;3.05;0.55;;;19.20;80.60;;;;;;4926942;29;20140;-74
2021/07/07 09:41:20;;;;;;;2.33;0.50;;;19.30;80.90;;;;;;4937325;29;20388;-75
2021/07/07 09:43:51;;;;;;;1.77;0.50;;;19.30;82.00;;;;;;4936986;29;20031;-74
2021/07/07 09:46:18;;;;;;;1.17;0.40;;;19.30;82.30;;;;;;4937377;29;20023;-74
2021/07/07 09:48:44;;;;;;;1.90;0.60;;;19.30;82.80;;;;;;4954190;29;20095;-74
2021/07/07 09:51:10;;;;;;;1.98;0.70;;;19.40;81.40;;;;;;4954617;29;20046;-74
2021/07/07 09:53:36;;;;;;;1.67;0.60;;;19.40;81.50;;;;;;4936653;29;20393;-75
2021/07/07 09:56:03;;;;;;;1.50;0.70;;;19.60;82.80;;;;;;4954179;29;20035;-75
2021/07/07 09:58:29;;;;;;;5.97;0.88;;;19.70;83.30;;;;;;4936217;29;20404;-75
2021/07/07 10:00:55;;;;;;;2.13;0.95;;;19.60;82.00;;;;;;4937395;29;20027;-74
2021/07/07 10:03:21;;;;;;;4.15;0.77;;;19.70;82.10;;;;;;4936868;29;20031;-76
2021/07/07 10:05:47;;;;;;;5.10;1.15;;;19.80;82.00;;;;;;4954244;29;20035;-78
2021/07/07 10:08:14;;;;;;;1.65;0.73;;;19.80;82.80;;;;;;4937179;29;20023;-74
2021/07/07 10:10:42;;;;;;;2.78;0.70;;;19.80;83.20;;;;;;4953241;29;20023;-75
2021/07/07 10:13:10;;;;;;;2.53;1.05;;;19.80;83.70;;;;;;4953649;29;20031;-74
2021/07/07 10:15:36;;;;;;;1.75;0.60;;;19.90;83.00;;;;;;4953154;29;20123;-74
2021/07/07 10:18:04;;;;;;;3.85;0.68;;;20.00;83.20;;;;;;4937411;29;20045;-76
2021/07/07 10:20:30;;;;;;;1.83;0.50;;;20.20;80.70;;;;;;4937534;29;20062;-75
2021/07/07 10:22:57;;;;;;;2.63;0.77;;;20.30;81.40;;;;;;4958024;29;20059;-74
2021/07/07 10:25:26;;;;;;;2.03;1.10;;;20.30;81.10;;;;;;4939797;29;20042;-77
2021/07/07 10:27:56;;;;;;;1.58;0.57;;;20.30;80.20;;;;;;4958095;29;20039;-75
2021/07/07 10:30:42;;;;;;;3.22;0.60;;;20.20;80.90;;;;;;4957911;29;20515;-78
2021/07/07 10:33:09;;;;;;;1.05;0.60;;;20.20;81.20;;;;;;4940567;29;20086;-75
2021/07/07 10:35:36;;;;;;;2.00;0.70;;;20.20;81.50;;;;;;4956938;29;20035;-76
2021/07/07 10:38:05;;;;;;;2.95;0.68;;;20.30;83.30;;;;;;4957622;29;20085;-75
2021/07/07 10:40:31;;;;;;;1.30;0.70;;;20.30;83.10;;;;;;4956991;29;20023;-74
2021/07/07 10:42:57;;;;;;;2.55;0.90;;;20.40;83.10;;;;;;4957447;29;20488;-73
2021/07/07 10:45:43;;;;;;;4.00;0.85;;;20.40;82.00;;;;;;4939759;29;20031;-76
2021/07/07 10:48:28;;;;;;;1.95;0.70;;;20.60;77.60;;;;;;4940634;29;20373;-75
2021/07/07 10:50:59;;;;;;;1.83;0.80;;;20.70;75.90;;;;;;4940452;29;20027;-78
2021/07/07 10:53:27;;;;;;;2.05;0.70;;;20.90;75.70;;;;;;4957077;29;20031;-76
2021/07/07 10:55:54;;;;;;;1.10;0.90;;;20.80;75.80;;;;;;4957088;29;20047;-77
2021/07/07 10:58:32;;;;;;;2.53;0.70;;;20.80;77.20;;;;;;4940308;29;20142;-74
2021/07/07 11:00:58;;;;;;;3.40;0.60;;;20.80;75.00;;;;;;4940310;29;20035;-73
2021/07/07 11:03:39;;;;;;;1.33;0.63;;;20.90;76.20;;;;;;4940092;29;20389;-76
2021/07/07 11:06:27;;;;;;;2.70;0.88;;;21.10;75.00;;;;;;4921284;29;20074;-74
2021/07/07 11:09:14;;;;;;;4.00;0.82;;;21.20;75.20;;;;;;4921518;29;20122;-73
2021/07/07 11:11:47;;;;;;;2.25;0.75;;;21.40;78.70;;;;;;4920968;29;20031;-73
2021/07/07 11:14:27;;;;;;;1.65;0.85;;;21.50;75.60;;;;;;4938284;29;20043;-74
2021/07/07 11:16:55;;;;;;;2.22;0.68;;;21.60;73.00;;;;;;4921401;29;20362;-74
2021/07/07 11:19:40;;;;;;;2.40;0.77;;;21.70;75.20;;;;;;4938303;29;20107;-73
2021/07/07 11:22:07;;;;;;;2.97;0.73;;;21.80;74.00;;;;;;4921125;29;20032;-73
2021/07/07 11:24:33;;;;;;;4.38;0.80;;;22.00;72.00;;;;;;4937725;29;20067;-74
2021/07/07 11:27:02;;;;;;;1.38;0.73;;;22.00;73.60;;;;;;4920945;29;20055;-73
2021/07/07 11:29:29;;;;;;;2.75;0.68;;;22.00;74.50;;;;;;4937375;29;20389;-74
2021/07/07 11:31:55;;;;;;;3.30;0.82;;;22.10;73.70;;;;;;4939941;28;20071;-76
2021/07/07 11:34:21;;;;;;;3.47;0.70;;;22.20;73.20;;;;;;4955401;28;20066;-76
2021/07/07 11:36:47;;;;;;;2.65;0.60;;;22.30;73.00;;;;;;4939032;29;20421;-75
2021/07/07 11:39:12;;;;;;;1.35;0.70;;;22.40;71.90;;;;;;4939601;29;20054;-81
2021/07/07 11:41:40;;;;;;;1.63;0.65;;;22.40;72.60;;;;;;4955883;29;20023;-74
2021/07/07 11:44:07;;;;;;;1.27;0.70;;;22.30;71.20;;;;;;4938907;29;20067;-74
2021/07/07 11:46:33;;;;;;;1.65;0.80;;;22.30;70.90;;;;;;4938151;29;20050;-74
2021/07/07 11:49:09;;;;;;;2.72;0.57;;;22.30;71.60;;;;;;4956151;29;20469;-74
2021/07/07 11:51:37;;;;;;;1.88;0.60;;;22.50;72.00;;;;;;4936309;29;20032;-73
2021/07/07 11:54:03;;;;;;;1.83;0.73;;;22.50;70.10;;;;;;4939164;29;20058;-76
2021/07/07 11:56:30;;;;;;;1.33;0.60;;;22.50;69.50;;;;;;4955906;29;20465;-77
2021/07/07 11:59:02;;;;;;;1.88;0.60;;;22.50;70.80;;;;;;4938980;29;20043;-78
2021/07/07 12:01:29;;;;;;;94.20;61.05;;;22.60;66.80;;;;;;4955983;29;20027;-77
2021/07/07 12:04:09;;;;;;;46.28;23.33;;;22.70;66.30;;;;;;4954179;29;20036;-82
2021/07/07 12:06:36;;;;;;;31.20;15.95;;;22.80;69.30;;;;;;4956597;29;20023;-80
2021/07/07 12:09:17;;;;;;;5.60;3.28;;;22.90;68.20;;;;;;4956330;29;20031;-79
2021/07/07 12:11:53;;;;;;;;;;;23.00;70.70;;;;;;4938529;29;20507;-75
2021/07/07 12:14:20;;;;;;;2.22;1.35;;;23.10;70.50;;;;;;4938606;29;19925;-75
2021/07/07 12:16:46;;;;;;;1.75;1.05;;;23.10;71.50;;;;;;4955562;29;20019;-76
2021/07/07 12:19:15;;;;;;;5.00;1.10;;;23.30;69.70;;;;;;4955862;29;20106;-75
2021/07/07 12:22:02;;;;;;;1.92;0.80;;;23.50;68.00;;;;;;4955442;29;20023;-75
2021/07/07 12:24:38;;;;;;;3.88;0.68;;;23.50;66.80;;;;;;4951284;28;20166;-78
2021/07/07 12:27:14;;;;;;;1.38;0.60;;;23.50;68.20;;;;;;4938221;29;20464;-75
2021/07/07 12:29:46;;;;;;;3.40;0.82;;;23.50;66.80;;;;;;4955275;29;20376;-75
2021/07/07 12:32:13;;;;;;;3.95;0.65;;;23.40;63.50;;;;;;4938565;29;20429;-76
2021/07/07 12:34:41;;;;;;;5.78;0.73;;;23.40;64.10;;;;;;4955025;29;20457;-74
2021/07/07 12:37:15;;;;;;;4.63;1.00;;;23.40;62.10;;;;;;4955594;29;20055;-74
2021/07/07 12:39:47;;;;;;;2.03;0.60;;;23.40;62.00;;;;;;4952653;29;20054;-74
2021/07/07 12:42:25;;;;;;;2.17;0.70;;;23.40;63.50;;;;;;4968768;28;20121;-73
2021/07/07 12:44:50;;;;;;;6.53;0.70;;;23.40;60.30;;;;;;4950304;28;20178;-74
2021/07/07 12:47:18;;;;;;;3.80;0.63;;;23.40;62.60;;;;;;4938293;29;20517;-78
2021/07/07 12:49:50;;;;;;;1.33;0.63;;;23.50;62.20;;;;;;4921884;29;20027;-74
2021/07/07 12:52:33;;;;;;;5.32;0.68;;;23.60;60.50;;;;;;4941036;29;20028;-77